Stavropol', Russia
Current Conditions -  °F | °C
As of 1:00 PM on Sunday 25 Jan 2015 (Local Time) from URMT Reporting Station
Overcast Overcast  
Wind Chill: 21°   Ceiling: 1000
Heat Index: 34°   Visibility: 6mi
Dew Point: 30°   Wind: 25mph
Humidity: 87%   Direction: 130°SE
Pressure: 30.15"   Gusts: 34mph
Location:  45.04°N, 41.97°E
Report Text: URMT 251000Z 13011G15MPS 9999 BKN010 OVC100 01/M01 Q1021 NOSIGRMK QFE725 SC060
Loading
Personal Weather Stations






























Interactive Weather Map New forecast layout! Learn more

10-Day Weather Forecast

Advertisements
Track Severe Weather on mobile